sensor_id;sensor_type;location;lat;lon;timestamp;temperature;humidity
48264;DHT22;34086;51.076;13.722;2024-01-11T00:00:18;-6.50;99.90
48264;DHT22;34086;51.076;13.722;2024-01-11T00:01:19;-6.50;99.90
48264;DHT22;34086;51.076;13.722;2024-01-11T00:02:20;-6.50;99.90
48264;DHT22;34086;51.076;13.722;2024-01-11T00:03:20;-6.50;99.90
48264;DHT22;34086;51.076;13.722;2024-01-11T00:04:21;-6.60;99.90
48264;DHT22;34086;51.076;13.722;2024-01-11T00:05:22;-6.60;99.90
48264;DHT22;34086;51.076;13.722;2024-01-11T00:06:22;-6.60;99.90
48264;DHT22;34086;51.076;13.722;2024-01-11T00:07:23;-6.60;99.90
48264;DHT22;34086;51.076;13.722;2024-01-11T00:08:23;-6.60;99.90
48264;DHT22;34086;51.076;13.722;2024-01-11T00:09:24;-6.60;99.90
48264;DHT22;34086;51.076;13.722;2024-01-11T00:10:24;-6.60;99.90
48264;DHT22;34086;51.076;13.722;2024-01-11T00:11:25;-6.60;99.90
48264;DHT22;34086;51.076;13.722;2024-01-11T00:12:26;-6.60;99.90
48264;DHT22;34086;51.076;13.722;2024-01-11T00:13:26;-6.60;99.90
48264;DHT22;34086;51.076;13.722;2024-01-11T00:14:27;-6.60;99.90
48264;DHT22;34086;51.076;13.722;2024-01-11T00:15:27;-6.60;99.90
48264;DHT22;34086;51.076;13.722;2024-01-11T00:16:28;-6.70;99.90
48264;DHT22;34086;51.076;13.722;2024-01-11T00:17:28;-6.60;99.90
48264;DHT22;34086;51.076;13.722;2024-01-11T00:18:29;-6.60;99.90
48264;DHT22;34086;51.076;13.722;2024-01-11T00:19:29;-6.60;99.90
48264;DHT22;34086;51.076;13.722;2024-01-11T00:20:30;-6.60;99.90
48264;DHT22;34086;51.076;13.722;2024-01-11T00:21:30;-6.60;99.90
48264;DHT22;34086;51.076;13.722;2024-01-11T00:22:31;-6.50;99.90
48264;DHT22;34086;51.076;13.722;2024-01-11T00:23:32;-6.60;99.90
48264;DHT22;34086;51.076;13.722;2024-01-11T00:24:33;-6.60;99.90
48264;DHT22;34086;51.076;13.722;2024-01-11T00:25:33;-6.60;99.90
48264;DHT22;34086;51.076;13.722;2024-01-11T00:26:34;-6.60;99.90
48264;DHT22;34086;51.076;13.722;2024-01-11T00:27:34;-6.60;99.90
48264;DHT22;34086;51.076;13.722;2024-01-11T00:28:35;-6.60;99.90
48264;DHT22;34086;51.076;13.722;2024-01-11T00:29:36;-6.60;99.90
48264;DHT22;34086;51.076;13.722;2024-01-11T00:30:36;-6.70;99.90
48264;DHT22;34086;51.076;13.722;2024-01-11T00:31:37;-6.70;99.90
48264;DHT22;34086;51.076;13.722;2024-01-11T00:32:38;-6.70;99.90
48264;DHT22;34086;51.076;13.722;2024-01-11T00:33:39;-6.70;99.90
48264;DHT22;34086;51.076;13.722;2024-01-11T00:34:40;-6.70;99.90
48264;DHT22;34086;51.076;13.722;2024-01-11T00:35:40;-6.70;99.90
48264;DHT22;34086;51.076;13.722;2024-01-11T00:36:41;-6.70;99.90
48264;DHT22;34086;51.076;13.722;2024-01-11T00:37:41;-6.70;99.90
48264;DHT22;34086;51.076;13.722;2024-01-11T00:38:42;-6.70;99.90
48264;DHT22;34086;51.076;13.722;2024-01-11T00:39:42;-6.70;99.90
48264;DHT22;34086;51.076;13.722;2024-01-11T00:40:44;-6.70;99.90
48264;DHT22;34086;51.076;13.722;2024-01-11T00:41:44;-6.80;99.90
48264;DHT22;34086;51.076;13.722;2024-01-11T00:42:45;-6.80;99.90
48264;DHT22;34086;51.076;13.722;2024-01-11T00:43:46;-6.80;99.90
48264;DHT22;34086;51.076;13.722;2024-01-11T00:44:46;-6.80;99.90
48264;DHT22;34086;51.076;13.722;2024-01-11T00:45:47;-6.80;99.90
48264;DHT22;34086;51.076;13.722;2024-01-11T00:46:47;-6.80;99.90
48264;DHT22;34086;51.076;13.722;2024-01-11T00:47:48;-6.80;99.90
48264;DHT22;34086;51.076;13.722;2024-01-11T00:48:48;-6.80;99.90
48264;DHT22;34086;51.076;13.722;2024-01-11T00:49:49;-6.80;99.90
48264;DHT22;34086;51.076;13.722;2024-01-11T00:50:49;-6.80;99.90
48264;DHT22;34086;51.076;13.722;2024-01-11T00:51:50;-6.80;99.90
48264;DHT22;34086;51.076;13.722;2024-01-11T00:52:51;-6.80;99.90
48264;DHT22;34086;51.076;13.722;2024-01-11T00:53:51;-6.80;99.90
48264;DHT22;34086;51.076;13.722;2024-01-11T00:54:52;-6.80;99.90
48264;DHT22;34086;51.076;13.722;2024-01-11T00:55:53;-6.80;99.90
48264;DHT22;34086;51.076;13.722;2024-01-11T00:56:53;-6.80;99.90
48264;DHT22;34086;51.076;13.722;2024-01-11T00:57:54;-6.90;99.90
48264;DHT22;34086;51.076;13.722;2024-01-11T00:58:54;-6.90;99.90
48264;DHT22;34086;51.076;13.722;2024-01-11T00:59:55;-6.90;99.90
48264;DHT22;34086;51.076;13.722;2024-01-11T01:00:55;-6.90;99.90
48264;DHT22;34086;51.076;13.722;2024-01-11T01:01:56;-6.90;99.90
48264;DHT22;34086;51.076;13.722;2024-01-11T01:02:56;-6.90;99.90
48264;DHT22;34086;51.076;13.722;2024-01-11T01:03:57;-6.80;99.90
48264;DHT22;34086;51.076;13.722;2024-01-11T01:04:58;-6.80;99.90
48264;DHT22;34086;51.076;13.722;2024-01-11T01:05:59;-6.80;99.90
48264;DHT22;34086;51.076;13.722;2024-01-11T01:06:59;-6.90;99.90
48264;DHT22;34086;51.076;13.722;2024-01-11T01:08:00;-6.90;99.90
48264;DHT22;34086;51.076;13.722;2024-01-11T01:09:00;-7.00;99.90
48264;DHT22;34086;51.076;13.722;2024-01-11T01:10:01;-6.90;99.90
48264;DHT22;34086;51.076;13.722;2024-01-11T01:11:02;-6.90;99.90
48264;DHT22;34086;51.076;13.722;2024-01-11T01:12:03;-6.90;99.90
48264;DHT22;34086;51.076;13.722;2024-01-11T01:13:04;-6.90;99.90
48264;DHT22;34086;51.076;13.722;2024-01-11T01:14:05;-7.00;99.90
48264;DHT22;34086;51.076;13.722;2024-01-11T01:15:05;-7.00;99.90
48264;DHT22;34086;51.076;13.722;2024-01-11T01:16:06;-7.00;99.90
48264;DHT22;34086;51.076;13.722;2024-01-11T01:17:07;-7.10;99.90
48264;DHT22;34086;51.076;13.722;2024-01-11T01:18:07;-7.00;99.90
48264;DHT22;34086;51.076;13.722;2024-01-11T01:19:08;-7.00;99.90
48264;DHT22;34086;51.076;13.722;2024-01-11T01:20:09;-7.00;99.90
48264;DHT22;34086;51.076;13.722;2024-01-11T01:21:09;-7.00;99.90
48264;DHT22;34086;51.076;13.722;2024-01-11T01:22:10;-7.00;99.90
48264;DHT22;34086;51.076;13.722;2024-01-11T01:23:10;-7.00;99.90
48264;DHT22;34086;51.076;13.722;2024-01-11T01:24:11;-7.00;99.90
48264;DHT22;34086;51.076;13.722;2024-01-11T01:25:12;-7.00;99.90
48264;DHT22;34086;51.076;13.722;2024-01-11T01:26:12;-7.00;99.90
48264;DHT22;34086;51.076;13.722;2024-01-11T01:27:13;-7.00;99.90
48264;DHT22;34086;51.076;13.722;2024-01-11T01:28:13;-7.00;99.90
48264;DHT22;34086;51.076;13.722;2024-01-11T01:29:14;-7.00;99.90
48264;DHT22;34086;51.076;13.722;2024-01-11T01:30:14;-7.00;99.90
48264;DHT22;34086;51.076;13.722;2024-01-11T01:31:15;-7.00;99.90
48264;DHT22;34086;51.076;13.722;2024-01-11T01:32:15;-7.00;99.90
48264;DHT22;34086;51.076;13.722;2024-01-11T01:33:16;-7.00;99.90
48264;DHT22;34086;51.076;13.722;2024-01-11T01:34:17;-7.00;99.90
48264;DHT22;34086;51.076;13.722;2024-01-11T01:35:17;-7.00;99.90
48264;DHT22;34086;51.076;13.722;2024-01-11T01:36:18;-7.00;99.90
48264;DHT22;34086;51.076;13.722;2024-01-11T01:37:18;-7.00;99.90
48264;DHT22;34086;51.076;13.722;2024-01-11T01:38:19;-7.00;99.90
48264;DHT22;34086;51.076;13.722;2024-01-11T01:39:19;-7.00;99.90
48264;DHT22;34086;51.076;13.722;2024-01-11T01:40:20;-7.00;99.90
48264;DHT22;34086;51.076;13.722;2024-01-11T01:41:20;-7.00;99.90
48264;DHT22;34086;51.076;13.722;2024-01-11T01:42:21;-7.00;99.90
48264;DHT22;34086;51.076;13.722;2024-01-11T01:43:21;-6.90;99.90
48264;DHT22;34086;51.076;13.722;2024-01-11T01:44:22;-7.00;99.90
48264;DHT22;34086;51.076;13.722;2024-01-11T01:45:22;-7.00;99.90
48264;DHT22;34086;51.076;13.722;2024-01-11T01:46:24;-7.10;99.90
48264;DHT22;34086;51.076;13.722;2024-01-11T01:47:27;-7.10;99.90
48264;DHT22;34086;51.076;13.722;2024-01-11T01:48:28;-7.10;99.90
48264;DHT22;34086;51.076;13.722;2024-01-11T01:49:29;-7.10;99.90
48264;DHT22;34086;51.076;13.722;2024-01-11T01:50:30;-7.10;99.90
48264;DHT22;34086;51.076;13.722;2024-01-11T01:51:32;-7.20;99.90
48264;DHT22;34086;51.076;13.722;2024-01-11T01:52:33;-7.20;99.90
48264;DHT22;34086;51.076;13.722;2024-01-11T01:53:34;-7.10;99.90
48264;DHT22;34086;51.076;13.722;2024-01-11T01:54:35;-7.20;99.90
48264;DHT22;34086;51.076;13.722;2024-01-11T01:55:36;-7.10;99.90
48264;DHT22;34086;51.076;13.722;2024-01-11T01:56:36;-7.10;99.90
48264;DHT22;34086;51.076;13.722;2024-01-11T01:57:38;-7.10;99.90
48264;DHT22;34086;51.076;13.722;2024-01-11T01:58:40;-7.20;99.90
48264;DHT22;34086;51.076;13.722;2024-01-11T01:59:41;-7.20;99.90
48264;DHT22;34086;51.076;13.722;2024-01-11T02:00:44;-7.20;99.90
48264;DHT22;34086;51.076;13.722;2024-01-11T02:01:45;-7.20;99.90
48264;DHT22;34086;51.076;13.722;2024-01-11T02:02:50;-7.20;99.90
48264;DHT22;34086;51.076;13.722;2024-01-11T02:03:52;-7.20;99.90
48264;DHT22;34086;51.076;13.722;2024-01-11T02:04:54;-7.20;99.90
48264;DHT22;34086;51.076;13.722;2024-01-11T02:05:55;-7.20;99.90
48264;DHT22;34086;51.076;13.722;2024-01-11T02:06:57;-7.30;99.90
48264;DHT22;34086;51.076;13.722;2024-01-11T02:08:00;-7.30;99.90
48264;DHT22;34086;51.076;13.722;2024-01-11T02:09:01;-7.30;99.90
48264;DHT22;34086;51.076;13.722;2024-01-11T02:10:07;-7.20;99.90
48264;DHT22;34086;51.076;13.722;2024-01-11T02:11:07;-7.20;99.90
48264;DHT22;34086;51.076;13.722;2024-01-11T02:12:08;-7.20;99.90
48264;DHT22;34086;51.076;13.722;2024-01-11T02:13:11;-7.20;99.90
48264;DHT22;34086;51.076;13.722;2024-01-11T02:14:13;-7.20;99.90
48264;DHT22;34086;51.076;13.722;2024-01-11T02:15:14;-7.20;99.90
48264;DHT22;34086;51.076;13.722;2024-01-11T02:16:15;-7.20;99.90
48264;DHT22;34086;51.076;13.722;2024-01-11T02:17:15;-7.10;99.90
48264;DHT22;34086;51.076;13.722;2024-01-11T02:18:16;-7.10;99.90
48264;DHT22;34086;51.076;13.722;2024-01-11T02:19:19;-7.20;99.90
48264;DHT22;34086;51.076;13.722;2024-01-11T02:20:19;-7.20;99.90
48264;DHT22;34086;51.076;13.722;2024-01-11T02:21:21;-7.20;99.90
48264;DHT22;34086;51.076;13.722;2024-01-11T02:22:29;-7.20;99.90
48264;DHT22;34086;51.076;13.722;2024-01-11T02:23:30;-7.20;99.90
48264;DHT22;34086;51.076;13.722;2024-01-11T02:24:31;-7.20;99.90
48264;DHT22;34086;51.076;13.722;2024-01-11T02:25:32;-7.20;99.90
48264;DHT22;34086;51.076;13.722;2024-01-11T02:26:33;-7.10;99.90
48264;DHT22;34086;51.076;13.722;2024-01-11T02:27:49;-7.10;99.90
48264;DHT22;34086;51.076;13.722;2024-01-11T02:28:50;-7.20;99.90
48264;DHT22;34086;51.076;13.722;2024-01-11T02:29:50;-7.20;99.90
48264;DHT22;34086;51.076;13.722;2024-01-11T02:30:51;-7.20;99.90
48264;DHT22;34086;51.076;13.722;2024-01-11T02:31:52;-7.20;99.90
48264;DHT22;34086;51.076;13.722;2024-01-11T02:32:53;-7.20;99.90
48264;DHT22;34086;51.076;13.722;2024-01-11T02:33:54;-7.20;99.90
48264;DHT22;34086;51.076;13.722;2024-01-11T02:34:56;-7.20;99.90
48264;DHT22;34086;51.076;13.722;2024-01-11T02:35:57;-7.20;99.90
48264;DHT22;34086;51.076;13.722;2024-01-11T02:36:58;-7.20;99.90
48264;DHT22;34086;51.076;13.722;2024-01-11T02:37:59;-7.10;99.90
48264;DHT22;34086;51.076;13.722;2024-01-11T02:39:01;-7.10;99.90
48264;DHT22;34086;51.076;13.722;2024-01-11T02:40:02;-7.10;99.90
48264;DHT22;34086;51.076;13.722;2024-01-11T02:41:03;-7.20;99.90
48264;DHT22;34086;51.076;13.722;2024-01-11T02:42:03;-7.20;99.90
48264;DHT22;34086;51.076;13.722;2024-01-11T02:43:08;-7.20;99.90
48264;DHT22;34086;51.076;13.722;2024-01-11T02:44:09;-7.20;99.90
48264;DHT22;34086;51.076;13.722;2024-01-11T02:45:10;-7.20;99.90
48264;DHT22;34086;51.076;13.722;2024-01-11T02:46:11;-7.20;99.90
48264;DHT22;34086;51.076;13.722;2024-01-11T02:47:12;-7.20;99.90
48264;DHT22;34086;51.076;13.722;2024-01-11T02:48:12;-7.30;99.90
48264;DHT22;34086;51.076;13.722;2024-01-11T02:49:13;-7.20;99.90
48264;DHT22;34086;51.076;13.722;2024-01-11T02:50:13;-7.20;99.90
48264;DHT22;34086;51.076;13.722;2024-01-11T02:51:14;-7.20;99.90
48264;DHT22;34086;51.076;13.722;2024-01-11T02:52:14;-7.20;99.90
48264;DHT22;34086;51.076;13.722;2024-01-11T02:53:15;-7.20;99.90
48264;DHT22;34086;51.076;13.722;2024-01-11T02:54:15;-7.20;99.90
48264;DHT22;34086;51.076;13.722;2024-01-11T02:55:16;-7.20;99.90
48264;DHT22;34086;51.076;13.722;2024-01-11T02:56:16;-7.20;99.90
48264;DHT22;34086;51.076;13.722;2024-01-11T02:57:17;-7.30;99.90
48264;DHT22;34086;51.076;13.722;2024-01-11T02:58:17;-7.30;99.90
48264;DHT22;34086;51.076;13.722;2024-01-11T02:59:18;-7.30;99.90
48264;DHT22;34086;51.076;13.722;2024-01-11T03:00:19;-7.30;99.90
48264;DHT22;34086;51.076;13.722;2024-01-11T03:01:19;-7.30;99.90
48264;DHT22;34086;51.076;13.722;2024-01-11T03:02:20;-7.30;99.90
48264;DHT22;34086;51.076;13.722;2024-01-11T03:03:21;-7.30;99.90
48264;DHT22;34086;51.076;13.722;2024-01-11T03:04:21;-7.30;99.90
48264;DHT22;34086;51.076;13.722;2024-01-11T03:05:22;-7.30;99.90
48264;DHT22;34086;51.076;13.722;2024-01-11T03:06:22;-7.30;99.90
48264;DHT22;34086;51.076;13.722;2024-01-11T03:07:23;-7.30;99.90
48264;DHT22;34086;51.076;13.722;2024-01-11T03:08:23;-7.30;99.90
48264;DHT22;34086;51.076;13.722;2024-01-11T03:09:24;-7.30;99.90
48264;DHT22;34086;51.076;13.722;2024-01-11T03:10:24;-7.30;99.90
48264;DHT22;34086;51.076;13.722;2024-01-11T03:11:25;-7.30;99.90
48264;DHT22;34086;51.076;13.722;2024-01-11T03:12:25;-7.30;99.90
48264;DHT22;34086;51.076;13.722;2024-01-11T03:13:26;-7.30;99.90
48264;DHT22;34086;51.076;13.722;2024-01-11T03:14:27;-7.30;99.90
48264;DHT22;34086;51.076;13.722;2024-01-11T03:15:27;-7.30;99.90
48264;DHT22;34086;51.076;13.722;2024-01-11T03:16:28;-7.40;99.90
48264;DHT22;34086;51.076;13.722;2024-01-11T03:17:28;-7.40;99.90
48264;DHT22;34086;51.076;13.722;2024-01-11T03:18:29;-7.40;99.90
48264;DHT22;34086;51.076;13.722;2024-01-11T03:19:31;-7.40;99.90
48264;DHT22;34086;51.076;13.722;2024-01-11T03:20:32;-7.30;99.90
48264;DHT22;34086;51.076;13.722;2024-01-11T03:21:32;-7.30;99.90
48264;DHT22;34086;51.076;13.722;2024-01-11T03:22:33;-7.40;99.90
48264;DHT22;34086;51.076;13.722;2024-01-11T03:23:33;-7.40;99.90
48264;DHT22;34086;51.076;13.722;2024-01-11T03:24:37;-7.40;99.90
48264;DHT22;34086;51.076;13.722;2024-01-11T03:25:39;-7.40;99.90
48264;DHT22;34086;51.076;13.722;2024-01-11T03:26:41;-7.40;99.90
48264;DHT22;34086;51.076;13.722;2024-01-11T03:27:41;-7.40;99.90
48264;DHT22;34086;51.076;13.722;2024-01-11T03:28:42;-7.40;99.90
48264;DHT22;34086;51.076;13.722;2024-01-11T03:29:42;-7.40;99.90
48264;DHT22;34086;51.076;13.722;2024-01-11T03:30:43;-7.50;99.90
48264;DHT22;34086;51.076;13.722;2024-01-11T03:31:43;-7.50;99.90
48264;DHT22;34086;51.076;13.722;2024-01-11T03:32:45;-7.50;99.90
48264;DHT22;34086;51.076;13.722;2024-01-11T03:33:45;-7.50;99.90
48264;DHT22;34086;51.076;13.722;2024-01-11T03:34:46;-7.50;99.90
48264;DHT22;34086;51.076;13.722;2024-01-11T03:35:46;-7.50;99.90
48264;DHT22;34086;51.076;13.722;2024-01-11T03:36:47;-7.60;99.90
48264;DHT22;34086;51.076;13.722;2024-01-11T03:37:47;-7.50;99.90
48264;DHT22;34086;51.076;13.722;2024-01-11T03:38:48;-7.50;99.90
48264;DHT22;34086;51.076;13.722;2024-01-11T03:39:48;-7.50;99.90
48264;DHT22;34086;51.076;13.722;2024-01-11T03:40:49;-7.60;99.90
48264;DHT22;34086;51.076;13.722;2024-01-11T03:41:49;-7.60;99.90
48264;DHT22;34086;51.076;13.722;2024-01-11T03:42:50;-7.60;99.90
48264;DHT22;34086;51.076;13.722;2024-01-11T03:43:52;-7.60;99.90
48264;DHT22;34086;51.076;13.722;2024-01-11T03:44:52;-7.60;99.90
48264;DHT22;34086;51.076;13.722;2024-01-11T03:45:53;-7.60;99.90
48264;DHT22;34086;51.076;13.722;2024-01-11T03:46:53;-7.60;99.90
48264;DHT22;34086;51.076;13.722;2024-01-11T03:47:54;-7.60;99.90
48264;DHT22;34086;51.076;13.722;2024-01-11T03:48:54;-7.60;99.90
48264;DHT22;34086;51.076;13.722;2024-01-11T03:49:57;-7.70;99.90
48264;DHT22;34086;51.076;13.722;2024-01-11T03:50:57;-7.70;99.90
48264;DHT22;34086;51.076;13.722;2024-01-11T03:51:58;-7.70;99.90
48264;DHT22;34086;51.076;13.722;2024-01-11T03:52:59;-7.70;99.90
48264;DHT22;34086;51.076;13.722;2024-01-11T03:53:59;-7.60;99.90
48264;DHT22;34086;51.076;13.722;2024-01-11T03:55:00;-7.60;99.90
48264;DHT22;34086;51.076;13.722;2024-01-11T03:56:01;-7.60;99.90
48264;DHT22;34086;51.076;13.722;2024-01-11T03:57:01;-7.60;99.90
48264;DHT22;34086;51.076;13.722;2024-01-11T03:58:02;-7.60;99.90
48264;DHT22;34086;51.076;13.722;2024-01-11T03:59:02;-7.60;99.90
48264;DHT22;34086;51.076;13.722;2024-01-11T04:00:04;-7.60;99.90
48264;DHT22;34086;51.076;13.722;2024-01-11T04:01:06;-7.50;99.90
48264;DHT22;34086;51.076;13.722;2024-01-11T04:02:09;-7.40;99.90
48264;DHT22;34086;51.076;13.722;2024-01-11T04:03:09;-7.40;99.90
48264;DHT22;34086;51.076;13.722;2024-01-11T04:04:10;-7.40;99.90
48264;DHT22;34086;51.076;13.722;2024-01-11T04:05:11;-7.50;99.90
48264;DHT22;34086;51.076;13.722;2024-01-11T04:06:24;-7.50;99.90
48264;DHT22;34086;51.076;13.722;2024-01-11T04:07:24;-7.40;99.90
48264;DHT22;34086;51.076;13.722;2024-01-11T04:08:26;-7.50;99.90
48264;DHT22;34086;51.076;13.722;2024-01-11T04:09:27;-7.50;99.90
48264;DHT22;34086;51.076;13.722;2024-01-11T04:10:27;-7.50;99.90
48264;DHT22;34086;51.076;13.722;2024-01-11T04:11:28;-7.50;99.90
48264;DHT22;34086;51.076;13.722;2024-01-11T04:12:29;-7.50;99.90
48264;DHT22;34086;51.076;13.722;2024-01-11T04:13:30;-7.50;99.90
48264;DHT22;34086;51.076;13.722;2024-01-11T04:14:31;-7.50;99.90
48264;DHT22;34086;51.076;13.722;2024-01-11T04:15:31;-7.50;99.90
48264;DHT22;34086;51.076;13.722;2024-01-11T04:16:32;-7.50;99.90
48264;DHT22;34086;51.076;13.722;2024-01-11T04:17:32;-7.50;99.90
48264;DHT22;34086;51.076;13.722;2024-01-11T04:18:33;-7.50;99.90
48264;DHT22;34086;51.076;13.722;2024-01-11T04:19:34;-7.50;99.90
48264;DHT22;34086;51.076;13.722;2024-01-11T04:20:34;-7.50;99.90
48264;DHT22;34086;51.076;13.722;2024-01-11T04:21:35;-7.60;99.90
48264;DHT22;34086;51.076;13.722;2024-01-11T04:22:37;-7.60;99.90
48264;DHT22;34086;51.076;13.722;2024-01-11T04:23:38;-7.60;99.90
48264;DHT22;34086;51.076;13.722;2024-01-11T04:24:38;-7.50;99.90
48264;DHT22;34086;51.076;13.722;2024-01-11T04:25:41;-7.50;99.90
48264;DHT22;34086;51.076;13.722;2024-01-11T04:26:41;-7.50;99.90
48264;DHT22;34086;51.076;13.722;2024-01-11T04:27:42;-7.50;99.90
48264;DHT22;34086;51.076;13.722;2024-01-11T04:28:44;-7.50;99.90
48264;DHT22;34086;51.076;13.722;2024-01-11T04:29:45;-7.50;99.90
48264;DHT22;34086;51.076;13.722;2024-01-11T04:30:45;-7.50;99.90
48264;DHT22;34086;51.076;13.722;2024-01-11T04:31:46;-7.50;99.90
48264;DHT22;34086;51.076;13.722;2024-01-11T04:32:46;-7.50;99.90
48264;DHT22;34086;51.076;13.722;2024-01-11T04:33:47;-7.50;99.90
48264;DHT22;34086;51.076;13.722;2024-01-11T04:34:47;-7.50;99.90
48264;DHT22;34086;51.076;13.722;2024-01-11T04:35:48;-7.50;99.90
48264;DHT22;34086;51.076;13.722;2024-01-11T04:36:48;-7.50;99.90
48264;DHT22;34086;51.076;13.722;2024-01-11T04:37:49;-7.50;99.90
48264;DHT22;34086;51.076;13.722;2024-01-11T04:38:49;-7.60;99.90
48264;DHT22;34086;51.076;13.722;2024-01-11T04:39:50;-7.50;99.90
48264;DHT22;34086;51.076;13.722;2024-01-11T04:40:50;-7.50;99.90
48264;DHT22;34086;51.076;13.722;2024-01-11T04:41:51;-7.50;99.90
48264;DHT22;34086;51.076;13.722;2024-01-11T04:42:51;-7.40;99.90
48264;DHT22;34086;51.076;13.722;2024-01-11T04:43:52;-7.40;99.90
48264;DHT22;34086;51.076;13.722;2024-01-11T04:44:52;-7.40;99.90
48264;DHT22;34086;51.076;13.722;2024-01-11T04:45:53;-7.40;99.90
48264;DHT22;34086;51.076;13.722;2024-01-11T04:46:54;-7.40;99.90
48264;DHT22;34086;51.076;13.722;2024-01-11T04:47:54;-7.40;99.90
48264;DHT22;34086;51.076;13.722;2024-01-11T04:48:55;-7.40;99.90
48264;DHT22;34086;51.076;13.722;2024-01-11T04:49:55;-7.40;99.90
48264;DHT22;34086;51.076;13.722;2024-01-11T04:50:56;-7.40;99.90
48264;DHT22;34086;51.076;13.722;2024-01-11T04:51:56;-7.50;99.90
48264;DHT22;34086;51.076;13.722;2024-01-11T04:52:57;-7.50;99.90
48264;DHT22;34086;51.076;13.722;2024-01-11T04:53:57;-7.50;99.90
48264;DHT22;34086;51.076;13.722;2024-01-11T04:54:58;-7.50;99.90
48264;DHT22;34086;51.076;13.722;2024-01-11T04:55:58;-7.50;99.90
48264;DHT22;34086;51.076;13.722;2024-01-11T04:56:59;-7.50;99.90
48264;DHT22;34086;51.076;13.722;2024-01-11T04:58:00;-7.50;99.90
48264;DHT22;34086;51.076;13.722;2024-01-11T04:59:00;-7.50;99.90
48264;DHT22;34086;51.076;13.722;2024-01-11T05:00:01;-7.40;99.90
48264;DHT22;34086;51.076;13.722;2024-01-11T05:01:01;-7.40;99.90
48264;DHT22;34086;51.076;13.722;2024-01-11T05:02:02;-7.50;99.90
48264;DHT22;34086;51.076;13.722;2024-01-11T05:03:03;-7.40;99.90
48264;DHT22;34086;51.076;13.722;2024-01-11T05:04:03;-7.40;99.90
48264;DHT22;34086;51.076;13.722;2024-01-11T05:05:04;-7.40;99.90
48264;DHT22;34086;51.076;13.722;2024-01-11T05:06:05;-7.40;99.90
48264;DHT22;34086;51.076;13.722;2024-01-11T05:07:05;-7.40;99.90
48264;DHT22;34086;51.076;13.722;2024-01-11T05:08:06;-7.40;99.90
48264;DHT22;34086;51.076;13.722;2024-01-11T05:09:07;-7.40;99.90
48264;DHT22;34086;51.076;13.722;2024-01-11T05:10:08;-7.40;99.90
48264;DHT22;34086;51.076;13.722;2024-01-11T05:11:18;-7.40;99.90
48264;DHT22;34086;51.076;13.722;2024-01-11T05:12:19;-7.40;99.90
48264;DHT22;34086;51.076;13.722;2024-01-11T05:13:20;-7.40;99.90
48264;DHT22;34086;51.076;13.722;2024-01-11T05:14:20;-7.30;99.90
48264;DHT22;34086;51.076;13.722;2024-01-11T05:15:21;-7.30;99.90
48264;DHT22;34086;51.076;13.722;2024-01-11T05:16:22;-7.20;99.90
48264;DHT22;34086;51.076;13.722;2024-01-11T05:17:24;-7.20;99.90
48264;DHT22;34086;51.076;13.722;2024-01-11T05:18:25;-7.20;99.90
48264;DHT22;34086;51.076;13.722;2024-01-11T05:19:25;-7.20;99.90
48264;DHT22;34086;51.076;13.722;2024-01-11T05:20:26;-7.20;99.90
48264;DHT22;34086;51.076;13.722;2024-01-11T05:21:26;-7.20;99.90
48264;DHT22;34086;51.076;13.722;2024-01-11T05:22:27;-7.30;99.90
48264;DHT22;34086;51.076;13.722;2024-01-11T05:23:27;-7.30;99.90
48264;DHT22;34086;51.076;13.722;2024-01-11T05:24:28;-7.30;99.90
48264;DHT22;34086;51.076;13.722;2024-01-11T05:25:29;-7.30;99.90
48264;DHT22;34086;51.076;13.722;2024-01-11T05:26:33;-7.30;99.90
48264;DHT22;34086;51.076;13.722;2024-01-11T05:27:34;-7.30;99.90
48264;DHT22;34086;51.076;13.722;2024-01-11T05:28:34;-7.30;99.90
48264;DHT22;34086;51.076;13.722;2024-01-11T05:29:35;-7.20;99.90
48264;DHT22;34086;51.076;13.722;2024-01-11T05:30:36;-7.20;99.90
48264;DHT22;34086;51.076;13.722;2024-01-11T05:31:36;-7.30;99.90
48264;DHT22;34086;51.076;13.722;2024-01-11T05:32:38;-7.30;99.90
48264;DHT22;34086;51.076;13.722;2024-01-11T05:33:39;-7.30;99.90
48264;DHT22;34086;51.076;13.722;2024-01-11T05:34:39;-7.30;99.90
48264;DHT22;34086;51.076;13.722;2024-01-11T05:35:40;-7.30;99.90
48264;DHT22;34086;51.076;13.722;2024-01-11T05:36:40;-7.30;99.90
48264;DHT22;34086;51.076;13.722;2024-01-11T05:37:41;-7.30;99.90
48264;DHT22;34086;51.076;13.722;2024-01-11T05:38:41;-7.30;99.90
48264;DHT22;34086;51.076;13.722;2024-01-11T05:39:42;-7.30;99.90
48264;DHT22;34086;51.076;13.722;2024-01-11T05:40:43;-7.40;99.90
48264;DHT22;34086;51.076;13.722;2024-01-11T05:41:44;-7.40;99.90
48264;DHT22;34086;51.076;13.722;2024-01-11T05:42:47;-7.40;99.90
48264;DHT22;34086;51.076;13.722;2024-01-11T05:43:48;-7.40;99.90
48264;DHT22;34086;51.076;13.722;2024-01-11T05:44:50;-7.40;99.90
48264;DHT22;34086;51.076;13.722;2024-01-11T05:45:50;-7.40;99.90
48264;DHT22;34086;51.076;13.722;2024-01-11T05:46:51;-7.40;99.90
48264;DHT22;34086;51.076;13.722;2024-01-11T05:47:52;-7.40;99.90
48264;DHT22;34086;51.076;13.722;2024-01-11T05:48:52;-7.40;99.90
48264;DHT22;34086;51.076;13.722;2024-01-11T05:49:53;-7.50;99.90
48264;DHT22;34086;51.076;13.722;2024-01-11T05:50:53;-7.50;99.90
48264;DHT22;34086;51.076;13.722;2024-01-11T05:51:54;-7.50;99.90
48264;DHT22;34086;51.076;13.722;2024-01-11T05:52:54;-7.50;99.90
48264;DHT22;34086;51.076;13.722;2024-01-11T05:53:56;-7.50;99.90
48264;DHT22;34086;51.076;13.722;2024-01-11T05:54:57;-7.50;99.90
48264;DHT22;34086;51.076;13.722;2024-01-11T05:55:58;-7.50;99.90
48264;DHT22;34086;51.076;13.722;2024-01-11T05:56:58;-7.50;99.90
48264;DHT22;34086;51.076;13.722;2024-01-11T05:58:00;-7.50;99.90
48264;DHT22;34086;51.076;13.722;2024-01-11T05:59:01;-7.50;99.90
48264;DHT22;34086;51.076;13.722;2024-01-11T06:00:02;-7.50;99.90
48264;DHT22;34086;51.076;13.722;2024-01-11T06:01:06;-7.50;99.90
48264;DHT22;34086;51.076;13.722;2024-01-11T06:02:07;-7.50;99.90
48264;DHT22;34086;51.076;13.722;2024-01-11T06:03:08;-7.50;99.90
48264;DHT22;34086;51.076;13.722;2024-01-11T06:04:08;-7.50;99.90
48264;DHT22;34086;51.076;13.722;2024-01-11T06:05:10;-7.50;99.90
48264;DHT22;34086;51.076;13.722;2024-01-11T06:06:12;-7.50;99.90
48264;DHT22;34086;51.076;13.722;2024-01-11T06:07:13;-7.50;99.90
48264;DHT22;34086;51.076;13.722;2024-01-11T06:08:14;-7.50;99.90
48264;DHT22;34086;51.076;13.722;2024-01-11T06:09:15;-7.50;99.90
48264;DHT22;34086;51.076;13.722;2024-01-11T06:10:15;-7.50;99.90
48264;DHT22;34086;51.076;13.722;2024-01-11T06:11:17;-7.50;99.90
48264;DHT22;34086;51.076;13.722;2024-01-11T06:12:18;-7.60;99.90
48264;DHT22;34086;51.076;13.722;2024-01-11T06:13:19;-7.60;99.90
48264;DHT22;34086;51.076;13.722;2024-01-11T06:14:19;-7.60;99.90
48264;DHT22;34086;51.076;13.722;2024-01-11T06:15:20;-7.60;99.90
48264;DHT22;34086;51.076;13.722;2024-01-11T06:16:21;-7.60;99.90
48264;DHT22;34086;51.076;13.722;2024-01-11T06:17:21;-7.60;99.90
48264;DHT22;34086;51.076;13.722;2024-01-11T06:18:22;-7.60;99.90